Monday, December 17, 2018, 4:49 AM EST
Back to Local

KNYG, Quantico Marine Corps Airfac

Location: MCB Quantico, VA, United States Lat: 38.5
Local Time: 4:49 AM EST ( 9:49 GMT) Lon: -77.3
Time Zone: US/Eastern Elev: 13 ft

Show me the last for .
Show Decoded

2018-12-17 03:56 METAR KNYG 170856Z AUTO 29006KT 10SM CLR 04/03 A2993 RMK AO2 SLP135 6////
                 T00390033 58002 PNO $ =
2018-12-17 02:56 METAR KNYG 170756Z AUTO 21003KT 10SM CLR 04/04 A2994 RMK AO2 SLP139 T00440039
                 PNO $ =
2018-12-17 01:56 METAR KNYG 170656Z AUTO 27003KT 10SM FEW041 05/04 A2993 RMK AO2 SLP136 T00500044
                 PNO $ =
2018-12-17 00:56 METAR KNYG 170556Z AUTO 00000KT 10SM OVC039 06/05 A2993 RMK AO2 SLP137 6////
                 T00610050 10067 20050 55005 PNO $ =
2018-12-16 23:56 METAR KNYG 170456Z AUTO 00000KT 10SM OVC037 06/04 A2993 RMK AO2 SLP136 T00610039
                 401000050 PNO $ =
2018-12-16 22:56 METAR KNYG 170356Z AUTO 00000KT 10SM OVC034 06/04 A2995 RMK AO2 SLP141 T00610044
                 PNO $ =
2018-12-16 22:33 METAR KNYG 170333Z AUTO 32003KT 10SM OVC031 06/04 A2995 RMK AO2 T00610044 PNO $
                 =
2018-12-16 22:22 METAR KNYG 170322Z AUTO 35005KT 10SM BKN029 OVC034 06/04 A2994 RMK AO2 T00610039
                 PNO $ =
2018-12-16 21:56 METAR KNYG 170256Z AUTO 33004KT 10SM OVC034 06/04 A2995 RMK AO2 SLP142 6////
                 T00610039 50005 PNO $ =
2018-12-16 20:56 METAR KNYG 170156Z AUTO 33005KT 10SM OVC034 06/04 A2995 RMK AO2 SLP144 T00560039
                 PNO $ =
2018-12-16 19:56 METAR KNYG 170056Z AUTO 34006KT 10SM FEW041 06/04 A2994 RMK AO2 SLP141 T00560039
                 PNO $ =
2018-12-16 19:43 METAR KNYG 170043Z AUTO 36006KT 10SM SCT015 SCT045 06/04 A2994 RMK AO2 T00560039
                 PNO $ =
2018-12-16 18:56 METAR KNYG 162356Z AUTO 33007KT 10SM SCT016 BKN028 BKN041 06/04 A2993 RMK AO2
                 SLP137 6//// T00610044 10078 20061 51018 PNO $ =
2018-12-16 18:22 METAR KNYG 162322Z AUTO 34009KT 10SM SCT011 OVC017 07/05 A2992 RMK AO2 T00670050
                 PNO $ =
2018-12-16 17:56 METAR KNYG 162256Z AUTO 34007KT 10SM OVC010 07/06 A2992 RMK AO2 CIG 009V013
                 SLP132 T00670056 PNO $ =
2018-12-16 16:56 METAR KNYG 162156Z AUTO 34007KT 10SM BKN014 BKN050 OVC080 07/05 A2990 RMK AO2
                 SLP127 T00670050 PNO $ =
2018-12-16 15:56 METAR KNYG 162056Z AUTO 35014KT 10SM FEW013 BKN041 OVC050 07/05 A2988 RMK AO2
                 SLP119 6//// T00670050 53016 PNO $ =
2018-12-16 15:49 METAR KNYG 162049Z AUTO 35011KT 10SM FEW013 SCT031 OVC048 07/05 A2988 RMK AO2
                 T00670050 PNO $ =
2018-12-16 14:56 METAR KNYG 161956Z AUTO 34013G18KT 10SM OVC012 07/06 A2986 RMK AO2 RAB24E33
                 SLP114 T00670056 PNO $ =
2018-12-16 13:56 METAR KNYG 161856Z AUTO 34008KT 10SM OVC013 07/06 A2985 RMK AO2 RAE56 SLP107
                 T00720061 PNO $ =
2018-12-16 12:56 METAR KNYG 161756Z AUTO 35011G18KT 10SM -RA BKN012 BKN019 OVC024 07/06 A2983 RMK
                 AO2 RAB08 SLP102 6//// T00670061 10089 20067 58016 PNO $ =
2018-12-16 11:56 METAR KNYG 161656Z AUTO 01011KT 10SM OVC014 08/07 A2985 RMK AO2 RAE42 SLP108
                 T00780072 PNO $ =
2018-12-16 11:33 METAR KNYG 161633Z AUTO 36011G18KT 3SM -RA BR SCT009 OVC014 08/08 A2985 RMK AO2
                 T00780078 PNO $ =
2018-12-16 11:09 METAR KNYG 161609Z AUTO 36008KT 3SM -RA BR OVC012 08/08 A2986 RMK AO2 T00830078
                 PNO $ =
2018-12-16 10:56 METAR KNYG 161556Z AUTO 36008KT 3SM -RA BR BKN009 OVC013 08/08 A2987 RMK AO2 CIG
                 007V011 SLP115 T00830078 PNO $ =
2018-12-16 10:41 METAR KNYG 161541Z AUTO 02010KT 3SM -RA BR BKN009 OVC014 08/08 A2987 RMK AO2 CIG
                 006V011 T00830078 PNO $ =
2018-12-16 10:34 METAR KNYG 161534Z AUTO 36009KT 2 1/2SM -RA BR OVC009 08/08 A2987 RMK AO2 CIG
                 006V013 T00830078 PNO $ =
2018-12-16 09:56 METAR KNYG 161456Z AUTO 01010KT 3SM -RA BR BKN009 OVC014 08/08 A2988 RMK AO2
                 RAB15 CIG 006V012 SLP118 6//// T00780078 52001 PNO $ =
2018-12-16 09:18 METAR KNYG 161418Z AUTO 01011KT 2 1/2SM -RA BR BKN009 OVC014 08/08 A2988 RMK AO2
                 RAB15 T00830078 PNO $ =
2018-12-16 09:09 METAR KNYG 161409Z AUTO 02008KT 2 1/2SM BR OVC011 08/08 A2988 RMK AO2 T00830078
                 PNO $ =
2018-12-16 08:56 METAR KNYG 161356Z AUTO 02008KT 3SM BR BKN009 OVC015 08/08 A2988 RMK AO2 SLP119
                 T00830078 PNO $ =
2018-12-16 07:56 METAR KNYG 161256Z AUTO 02012KT 5SM BR BKN008 OVC012 08/08 A2987 RMK AO2 CIG
                 006V011 SLP116 T00830078 PNO $ =
2018-12-16 07:29 METAR KNYG 161229Z AUTO 03010KT 3SM BR BKN008 OVC015 08/08 A2986 RMK AO2
                 T00830083 PNO $ =
2018-12-16 07:16 METAR KNYG 161216Z AUTO 03008KT 3SM BR SCT006 OVC015 08/08 A2986 RMK AO2
                 T00830083 PNO $ =
2018-12-16 07:06 METAR KNYG 161206Z AUTO 05010KT 3SM BR BKN006 OVC015 09/09 A2987 RMK AO2
                 T00890089 PNO $ =
2018-12-16 06:56 METAR KNYG 161156Z AUTO 04008KT 2 1/2SM BR BKN006 OVC011 09/09 A2987 RMK AO2
                 RAB24E43 SLP117 6//// 7//// T00890089 10100 20089 53003 PNO $ =
2018-12-16 06:29 METAR KNYG 161129Z AUTO 03008KT 2SM -RA BR FEW005 OVC011 09/09 A2987 RMK AO2
                 RAB24 T00890089 PNO $ =
2018-12-16 05:56 METAR KNYG 161056Z AUTO 03008KT 2 1/2SM BR OVC008 09/09 A2986 RMK AO2 CIG
                 004V012 SLP114 T00890089 PNO $ =
2018-12-16 05:29 METAR KNYG 161029Z AUTO 04010KT 3SM BR OVC008 09/09 A2986 RMK AO2 CIG 004V012
                 T00890089 PNO $ =
2018-12-16 05:26 METAR KNYG 161026Z AUTO 03009KT 3SM BR OVC010 09/09 A2986 RMK AO2 CIG 004V012
                 T00890089 PNO $ =
2018-12-16 05:06 METAR KNYG 161006Z AUTO 04009KT 2 1/2SM BR OVC007 09/09 A2986 RMK AO2 CIG
                 004V010 T00940094 PNO $ =
2018-12-16 04:56 METAR KNYG 160956Z AUTO 04008KT 3SM BR OVC007 09/09 A2987 RMK AO2 CIG 004V010
                 SLP114 T00940094 PNO $ =

Support USWX by starting your Amazon purchase here.